Flagstaff, AZ (86001)

12:47 AM MST on August 31, 2015 (GMT -0700)
University Highlands | | Change Station
CLOSE
Current Station
Personal Weather Station
Location: Flagstaff, AZ
Elevation: 7067 ft
Nearby Weather Stations

Elev 7067 ft 35.17 °N, 111.68 °W | Updated 7 seconds ago

Partly Cloudy
Partly Cloudy
56.8 °F
Feels Like 56.8 °F
N
0.0
Wind Variable Wind from WSW
Gusts 0.0 mph

Today
High -- | Low -- °F
--% Chance of Precip.
Yesterday
High -- | Low -- °F
Precip. -- in
5:58 AM 6:54 PM
Waning Gibbous, 96% visible
Pressure 29.97 in
Visibility 10.0 miles
Clouds Few 6000 ft
Few 10000 ft
Dew Point 55 °F
Humidity 95%
Rainfall 0.00 in
Snow Depth Not available.
UV 0.0 out of 12
Pollen 5.50 out of 12
Air Quality Not available.
Flu Activity Not available.
METAR KFLG 310657Z AUTO 00000KT 10SM FEW060 FEW100 13/12 A3028 RMK AO2 SLP149 T01280122 402560100 TSNO
Pressure 29.97 in
Visibility 10.0 miles
Clouds Few 6000 ft
Few 10000 ft
Dew Point 55 °F
Humidity 95%
Rainfall 0.00 in
Snow Depth Not available.
UV 0.0 out of 12
Pollen 5.50 out of 12
Air Quality Not available.
Flu Activity Not available.
METAR KFLG 310657Z AUTO 00000KT 10SM FEW060 FEW100 13/12 A3028 RMK AO2 SLP149 T01280122 402560100 TSNO

10-Day Weather Forecast

×

Almanac

Astronomy

Aug. 31, 2015 Rise Set
Actual Time
Civil Twilight
Nautical Twilight
Astronomical Twilight
Moon
Length of Visible Light
Length of Day
Tomorrow will be .
, % of the Moon is Illuminated

Today's Extremes

State Highs State Lows

Community

WunderPhotos

Upload Photos

1,851,220 photos uploaded!

WunderBlogs® & News

Nearby

Air Quality

  Air Quality AQ Index Pollutant
Not available.

Snow Depth

Station Depth Elevation

Earthquake Activity

City Distance Mag. Time & Date
Minimum magnitude displayed is 2.5.

Coastal Water Temperatures

Place Temperature

Stations

Nearby Weather Stations

Station Location Temp. Windchill Dew Point Humidity Wind Precip. Elev Updated Type